createdAt,value
2022-08-03T00:01:52.617Z,2.70
2022-08-03T00:04:19.370Z,2.70
2022-08-03T00:06:46.154Z,2.20
2022-08-03T00:09:12.941Z,2.70
2022-08-03T00:11:39.691Z,3.50
2022-08-03T00:14:07.497Z,5.20
2022-08-03T00:16:34.357Z,3.10
2022-08-03T00:19:01.624Z,2.20
2022-08-03T00:21:28.858Z,3.10
2022-08-03T00:23:56.130Z,2.70
2022-08-03T00:26:22.968Z,3.10
2022-08-03T00:28:50.532Z,6.30
2022-08-03T00:31:32.225Z,3.50
2022-08-03T00:34:04.534Z,4.70
2022-08-03T00:36:32.945Z,3.40
2022-08-03T00:38:59.748Z,3.30
2022-08-03T00:41:26.909Z,4.90
2022-08-03T00:43:53.874Z,6.70
2022-08-03T00:46:22.119Z,3.10
2022-08-03T00:48:52.808Z,5.00
2022-08-03T00:51:23.543Z,2.40
2022-08-03T00:53:50.692Z,2.40
2022-08-03T00:56:18.362Z,3.10
2022-08-03T00:58:46.273Z,7.40
2022-08-03T01:01:13.778Z,3.00
2022-08-03T01:03:40.863Z,4.90
2022-08-03T01:06:33.546Z,3.10
2022-08-03T01:09:15.930Z,3.20
2022-08-03T01:12:28.234Z,2.60
2022-08-03T01:15:19.293Z,4.30
2022-08-03T01:17:55.901Z,3.10
2022-08-03T01:20:24.646Z,2.40
2022-08-03T01:22:54.209Z,3.00
2022-08-03T01:25:38.535Z,5.70
2022-08-03T01:28:17.419Z,3.70
2022-08-03T01:30:46.739Z,3.20
2022-08-03T01:33:27.831Z,5.70
2022-08-03T01:36:00.231Z,3.30
2022-08-03T01:38:32.734Z,3.20
2022-08-03T01:41:07.028Z,5.40
2022-08-03T01:43:55.238Z,2.80
2022-08-03T01:46:25.404Z,3.20
2022-08-03T01:48:54.080Z,3.20
2022-08-03T01:51:22.113Z,3.10
2022-08-03T01:53:51.717Z,2.70
2022-08-03T01:56:21.818Z,4.60
2022-08-03T01:58:50.270Z,4.40
2022-08-03T02:01:18.674Z,3.30
2022-08-03T02:04:00.454Z,2.90
2022-08-03T02:07:02.571Z,4.60
2022-08-03T02:09:20.809Z,6.30
2022-08-03T02:11:48.919Z,2.80
2022-08-03T02:14:17.941Z,3.90
2022-08-03T02:16:45.585Z,3.50
2022-08-03T02:19:14.107Z,3.00
2022-08-03T02:21:56.448Z,5.40
2022-08-03T02:24:29.500Z,2.80
2022-08-03T02:26:57.683Z,5.00
2022-08-03T02:29:39.629Z,3.40
2022-08-03T02:32:16.874Z,3.60
2022-08-03T02:34:48.671Z,4.10
2022-08-03T02:37:18.656Z,6.80
2022-08-03T02:39:47.478Z,3.40
2022-08-03T02:42:18.469Z,3.90
2022-08-03T02:44:50.144Z,4.40
2022-08-03T02:47:20.847Z,3.70
2022-08-03T02:49:52.163Z,5.60
2022-08-03T02:52:22.670Z,4.10
2022-08-03T02:54:52.873Z,5.50
2022-08-03T02:57:21.297Z,4.60
2022-08-03T02:59:49.172Z,3.00
2022-08-03T03:02:17.909Z,4.90
2022-08-03T03:04:58.878Z,3.70
2022-08-03T03:07:34.660Z,4.50
2022-08-03T03:10:22.422Z,4.10
2022-08-03T03:12:55.625Z,4.30
2022-08-03T03:15:24.178Z,6.70
2022-08-03T03:17:53.102Z,4.60
2022-08-03T03:20:29.034Z,4.80
2022-08-03T03:23:01.736Z,4.60
2022-08-03T03:25:32.459Z,3.70
2022-08-03T03:28:00.118Z,6.30
2022-08-03T03:30:27.684Z,4.30
2022-08-03T03:32:55.407Z,4.60
2022-08-03T03:35:23.654Z,4.00
2022-08-03T03:37:57.023Z,4.30
2022-08-03T03:40:24.736Z,5.90
2022-08-03T03:42:53.002Z,3.90
2022-08-03T03:45:47.547Z,5.20
2022-08-03T03:48:15.740Z,5.80
2022-08-03T03:50:44.048Z,4.30
2022-08-03T03:53:13.275Z,3.60
2022-08-03T03:55:59.732Z,3.10
2022-08-03T03:58:32.356Z,5.00
2022-08-03T04:01:00.653Z,6.10
2022-08-03T04:03:27.791Z,4.50
2022-08-03T04:06:13.472Z,4.00
2022-08-03T04:08:59.191Z,9.50
2022-08-03T04:11:31.822Z,4.30
2022-08-03T04:14:14.443Z,6.50
2022-08-03T04:16:45.811Z,2.90
2022-08-03T04:19:51.022Z,3.70
2022-08-03T04:22:22.075Z,4.80
2022-08-03T04:25:08.833Z,3.70
2022-08-03T04:27:41.055Z,4.90
2022-08-03T04:30:09.007Z,5.90
2022-08-03T04:32:39.992Z,5.90
2022-08-03T04:35:10.044Z,4.90
2022-08-03T04:37:43.546Z,4.80
2022-08-03T04:40:15.559Z,3.10
2022-08-03T04:42:43.401Z,3.00
2022-08-03T04:45:15.255Z,2.80
2022-08-03T04:47:44.146Z,3.10
2022-08-03T04:50:13.518Z,2.80
2022-08-03T04:52:42.523Z,5.50
2022-08-03T04:55:09.578Z,4.80
2022-08-03T04:57:36.381Z,3.30
2022-08-03T05:00:05.212Z,3.40
2022-08-03T05:02:32.141Z,3.20
2022-08-03T05:04:59.645Z,2.40
2022-08-03T05:07:26.635Z,3.00
2022-08-03T05:10:14.712Z,3.90
2022-08-03T05:12:46.223Z,3.20
2022-08-03T05:15:13.907Z,4.60
2022-08-03T05:17:40.942Z,7.20
2022-08-03T05:20:08.345Z,5.40
2022-08-03T05:22:35.140Z,3.90
2022-08-03T05:25:02.437Z,2.50
2022-08-03T05:27:29.268Z,3.20
2022-08-03T05:29:56.052Z,4.10
2022-08-03T05:32:42.811Z,3.30
2022-08-03T05:36:02.141Z,2.80
2022-08-03T05:37:56.441Z,2.50
2022-08-03T05:40:23.315Z,2.90
2022-08-03T05:42:50.148Z,5.30
2022-08-03T05:45:19.803Z,3.40
2022-08-03T05:47:47.457Z,4.00
2022-08-03T05:50:14.359Z,5.60
2022-08-03T05:52:43.192Z,3.30
2022-08-03T05:55:13.355Z,2.30
2022-08-03T05:57:40.810Z,4.80
2022-08-03T06:00:11.671Z,3.40
2022-08-03T06:03:00.689Z,3.90
2022-08-03T06:05:29.182Z,2.60
2022-08-03T06:07:56.095Z,3.20
2022-08-03T06:10:35.712Z,3.20
2022-08-03T06:13:04.991Z,6.50
2022-08-03T06:15:32.963Z,3.40
2022-08-03T06:18:02.199Z,2.70
2022-08-03T06:20:29.789Z,5.20
2022-08-03T06:23:00.320Z,3.30
2022-08-03T06:25:28.407Z,2.60
2022-08-03T06:28:00.093Z,3.70
2022-08-03T06:30:28.824Z,3.40
2022-08-03T06:32:56.194Z,2.90
2022-08-03T06:35:23.062Z,2.70
2022-08-03T06:37:51.737Z,2.60
2022-08-03T06:40:24.648Z,2.70
2022-08-03T06:42:51.572Z,7.00
2022-08-03T06:45:18.401Z,2.70
2022-08-03T06:47:45.325Z,4.70
2022-08-03T06:50:17.413Z,5.60
2022-08-03T06:52:45.351Z,4.00
2022-08-03T06:55:12.255Z,4.40
2022-08-03T06:57:38.941Z,3.10
2022-08-03T07:00:11.850Z,4.70
2022-08-03T07:05:08.244Z,6.20
2022-08-03T07:07:35.044Z,3.30
2022-08-03T07:10:02.207Z,3.80
2022-08-03T07:12:30.531Z,2.40
2022-08-03T07:15:02.254Z,2.60
2022-08-03T07:17:31.406Z,3.10
2022-08-03T07:19:59.530Z,3.90
2022-08-03T07:22:26.307Z,3.50
2022-08-03T07:24:53.426Z,4.20
2022-08-03T07:46:45.968Z,6.20
2022-08-03T07:49:14.249Z,2.80
2022-08-03T07:51:42.484Z,4.90
2022-08-03T07:54:10.706Z,2.50
2022-08-03T07:56:38.919Z,2.30
2022-08-03T07:59:07.101Z,2.70
2022-08-03T08:01:38.164Z,3.90
2022-08-03T08:04:06.550Z,2.60
2022-08-03T08:06:34.884Z,7.20
2022-08-03T08:09:03.015Z,3.40
2022-08-03T08:11:31.130Z,4.00
2022-08-03T08:14:02.788Z,3.00
2022-08-03T08:16:31.440Z,4.50
2022-08-03T08:18:59.542Z,3.40
2022-08-03T08:21:27.905Z,2.60
2022-08-03T08:24:18.058Z,2.50
2022-08-03T08:26:48.710Z,2.20
2022-08-03T08:29:16.943Z,3.90
2022-08-03T08:31:45.045Z,2.10
2022-08-03T08:34:14.157Z,3.00
2022-08-03T08:36:42.741Z,3.70
2022-08-03T08:39:11.025Z,2.90
2022-08-03T08:41:39.327Z,4.50
2022-08-03T08:44:14.508Z,4.30
2022-08-03T08:46:43.259Z,2.10
2022-08-03T08:49:17.466Z,2.20
2022-08-03T08:51:59.770Z,2.00
2022-08-03T08:54:32.765Z,4.20
2022-08-03T08:57:09.102Z,4.50
2022-08-03T09:02:17.681Z,2.10
2022-08-03T09:04:48.926Z,4.70
2022-08-03T09:07:20.344Z,3.20
2022-08-03T09:10:11.027Z,3.70
2022-08-03T09:12:43.753Z,2.00
2022-08-03T09:15:21.980Z,3.30
2022-08-03T09:17:52.188Z,3.00
2022-08-03T09:20:21.906Z,6.00
2022-08-03T09:22:56.574Z,1.80
2022-08-03T09:25:43.377Z,4.70
2022-08-03T09:28:53.956Z,3.40
2022-08-03T09:31:08.351Z,3.30
2022-08-03T09:33:48.077Z,4.20
2022-08-03T09:36:36.370Z,2.20
2022-08-03T09:39:06.902Z,3.50
2022-08-03T09:41:35.014Z,2.20
2022-08-03T09:44:03.187Z,2.10
2022-08-03T09:46:32.848Z,3.30
2022-08-03T09:49:12.151Z,2.20
2022-08-03T09:52:32.387Z,1.70
2022-08-03T09:54:30.812Z,3.30
2022-08-03T09:56:59.585Z,2.90
2022-08-03T09:59:30.365Z,3.00
2022-08-03T10:02:02.597Z,1.90
2022-08-03T10:04:30.782Z,3.20
2022-08-03T10:07:10.743Z,3.10
2022-08-03T10:09:38.870Z,5.00
2022-08-03T10:12:12.492Z,2.20
2022-08-03T10:14:42.426Z,3.20
2022-08-03T10:17:10.538Z,3.50
2022-08-03T10:19:38.952Z,4.20
2022-08-03T10:22:21.979Z,2.10
2022-08-03T10:24:56.408Z,2.70
2022-08-03T10:27:25.528Z,4.00
2022-08-03T10:29:56.490Z,4.50
2022-08-03T10:32:52.350Z,4.90
2022-08-03T10:35:23.694Z,3.50
2022-08-03T10:38:03.578Z,4.80
2022-08-03T10:40:48.025Z,2.30
2022-08-03T10:43:40.834Z,4.30
2022-08-03T10:46:08.987Z,2.70
2022-08-03T10:48:38.317Z,2.10
2022-08-03T10:51:07.714Z,2.30
2022-08-03T10:53:44.028Z,2.50
2022-08-03T10:57:03.388Z,2.20
2022-08-03T10:59:48.677Z,2.40
2022-08-03T11:02:18.145Z,1.90
2022-08-03T11:04:46.309Z,3.50
2022-08-03T11:07:25.131Z,2.40
2022-08-03T11:09:55.249Z,2.10
2022-08-03T11:12:32.293Z,1.60
2022-08-03T11:15:05.126Z,3.90
2022-08-03T11:17:46.238Z,5.30
2022-08-03T11:20:44.290Z,3.70
2022-08-03T11:23:13.133Z,1.80
2022-08-03T11:26:15.129Z,5.20
2022-08-03T11:28:46.201Z,4.00
2022-08-03T11:31:47.251Z,2.80
2022-08-03T11:34:13.737Z,3.20
2022-08-03T11:37:21.933Z,3.80
2022-08-03T11:39:53.256Z,5.10
2022-08-03T11:42:24.477Z,2.50
2022-08-03T11:45:00.556Z,2.80
2022-08-03T11:47:30.168Z,3.30
2022-08-03T11:50:02.195Z,8.70
2022-08-03T11:52:40.568Z,2.10
2022-08-03T11:55:10.426Z,4.10
2022-08-03T11:59:12.805Z,4.40
2022-08-03T12:00:30.938Z,6.00
2022-08-03T12:03:14.307Z,4.40
2022-08-03T12:05:52.321Z,2.90
2022-08-03T12:08:26.629Z,4.10
2022-08-03T12:10:56.862Z,3.80
2022-08-03T12:14:45.352Z,2.80
2022-08-03T12:16:19.832Z,3.00
2022-08-03T12:19:02.751Z,2.10
2022-08-03T12:21:31.184Z,2.60
2022-08-03T12:24:01.497Z,3.90
2022-08-03T12:26:42.429Z,2.50
2022-08-03T12:29:26.444Z,2.30
2022-08-03T12:31:56.004Z,2.90
2022-08-03T12:34:24.503Z,4.30
2022-08-03T12:36:56.534Z,3.60
2022-08-03T12:39:27.584Z,3.50
2022-08-03T12:41:56.986Z,6.60
2022-08-03T12:44:35.356Z,2.70
2022-08-03T12:47:06.866Z,3.50
2022-08-03T12:49:49.474Z,4.70
2022-08-03T12:52:19.183Z,3.60
2022-08-03T12:55:01.497Z,2.90
2022-08-03T12:57:42.697Z,4.70
2022-08-03T13:00:21.376Z,3.60
2022-08-03T13:03:38.914Z,3.70
2022-08-03T13:05:50.593Z,4.80
2022-08-03T13:08:24.144Z,4.00
2022-08-03T13:13:39.675Z,2.70
2022-08-03T13:16:07.756Z,2.50
2022-08-03T13:18:35.899Z,2.20
2022-08-03T13:21:04.251Z,5.60
2022-08-03T13:23:32.654Z,2.40
2022-08-03T13:26:00.727Z,3.70
2022-08-03T13:28:28.874Z,3.10
2022-08-03T13:30:57.279Z,3.50
2022-08-03T13:33:27.908Z,3.50
2022-08-03T13:35:56.270Z,3.00
2022-08-03T13:38:27.243Z,5.10
2022-08-03T13:40:56.782Z,3.10
2022-08-03T13:43:24.926Z,2.50
2022-08-03T13:45:57.698Z,3.50
2022-08-03T13:48:36.776Z,2.60
2022-08-03T13:51:21.839Z,3.90
2022-08-03T13:53:52.489Z,2.30
2022-08-03T13:56:20.558Z,3.00
2022-08-03T13:58:48.660Z,2.90
2022-08-03T14:01:16.883Z,2.60
2022-08-03T14:03:46.573Z,2.70
2022-08-03T14:06:15.265Z,4.20
2022-08-03T14:08:43.541Z,1.90
2022-08-03T14:11:11.944Z,2.50
2022-08-03T14:13:40.147Z,8.00
2022-08-03T14:16:09.872Z,1.60
2022-08-03T14:18:40.101Z,2.30
2022-08-03T14:21:09.950Z,1.80
2022-08-03T14:23:38.511Z,3.10
2022-08-03T14:26:08.044Z,2.90
2022-08-03T14:28:36.549Z,3.30
2022-08-03T14:31:04.789Z,2.50
2022-08-03T14:33:36.758Z,2.20
2022-08-03T14:36:05.309Z,4.80
2022-08-03T14:38:33.503Z,3.00
2022-08-03T14:41:01.875Z,4.50
2022-08-03T14:43:34.086Z,3.60
2022-08-03T14:46:02.562Z,3.50
2022-08-03T14:50:10.340Z,2.20
2022-08-03T14:51:19.475Z,1.80
2022-08-03T14:53:47.605Z,2.30
2022-08-03T14:56:15.942Z,2.40
2022-08-03T14:58:44.005Z,3.60
2022-08-03T15:02:02.255Z,5.40
2022-08-03T15:04:00.381Z,2.50
2022-08-03T15:06:28.524Z,2.10
2022-08-03T15:09:13.773Z,2.00
2022-08-03T15:11:44.861Z,4.00
2022-08-03T15:14:13.328Z,4.50
2022-08-03T15:16:43.087Z,5.10
2022-08-03T15:20:03.191Z,5.80
2022-08-03T15:22:00.944Z,7.00
2022-08-03T15:24:29.776Z,5.00
2022-08-03T15:26:58.057Z,2.70
2022-08-03T15:30:05.377Z,4.40
2022-08-03T15:32:14.707Z,5.40
2022-08-03T15:34:50.492Z,10.50
2022-08-03T15:37:20.199Z,7.10
2022-08-03T15:39:59.028Z,8.00
2022-08-03T15:42:33.637Z,6.20
2022-08-03T15:47:30.061Z,13.70
2022-08-03T15:49:58.193Z,3.80
2022-08-03T15:52:26.398Z,6.50
2022-08-03T15:54:54.522Z,4.00
2022-08-03T15:57:23.130Z,10.70
2022-08-03T15:59:52.095Z,6.20
2022-08-03T16:02:20.381Z,3.40
2022-08-03T16:04:49.053Z,5.10
2022-08-03T16:07:37.147Z,2.00
2022-08-03T16:10:05.747Z,1.90
2022-08-03T16:12:33.962Z,5.30
2022-08-03T16:15:02.454Z,4.40
2022-08-03T16:17:31.238Z,3.00
2022-08-03T16:19:59.611Z,4.80
2022-08-03T16:22:28.703Z,2.20
2022-08-03T16:24:58.556Z,6.00
2022-08-03T16:27:55.787Z,5.00
2022-08-03T16:30:19.730Z,5.00
2022-08-03T16:32:48.534Z,1.60
2022-08-03T16:35:19.804Z,2.00
2022-08-03T16:37:56.533Z,6.70
2022-08-03T16:40:25.587Z,1.90
2022-08-03T16:42:53.881Z,1.50
2022-08-03T16:45:22.504Z,1.60
2022-08-03T16:48:05.758Z,1.60
2022-08-03T16:50:36.060Z,1.80
2022-08-03T16:53:09.829Z,1.40
2022-08-03T16:55:48.780Z,3.60
2022-08-03T16:58:41.285Z,1.40
2022-08-03T17:01:24.138Z,1.90
2022-08-03T17:04:02.025Z,1.80
2022-08-03T17:06:36.293Z,6.10
2022-08-03T17:09:10.182Z,12.00
2022-08-03T17:11:46.533Z,34.10
2022-08-03T17:14:22.675Z,31.70
2022-08-03T17:16:54.302Z,19.50
2022-08-03T17:19:25.013Z,15.80
2022-08-03T17:22:04.302Z,14.40
2022-08-03T17:24:42.091Z,11.80
2022-08-03T17:28:41.619Z,8.10
2022-08-03T17:30:07.713Z,13.00
2022-08-03T17:32:42.621Z,11.20
2022-08-03T17:35:11.442Z,7.10
2022-08-03T17:37:57.405Z,4.20
2022-08-03T17:40:27.388Z,3.40
2022-08-03T17:43:01.006Z,2.10
2022-08-03T17:45:51.906Z,2.30
2022-08-03T17:48:18.462Z,2.50
2022-08-03T17:50:51.360Z,2.80
2022-08-03T17:53:25.008Z,2.50
2022-08-03T17:56:44.941Z,1.90
2022-08-03T17:59:16.033Z,2.30
2022-08-03T18:02:29.591Z,1.90
2022-08-03T18:05:16.329Z,2.60
2022-08-03T18:07:59.494Z,2.70
2022-08-03T18:10:35.802Z,2.10
2022-08-03T18:13:10.976Z,2.90
2022-08-03T18:15:47.962Z,2.70
2022-08-03T18:21:09.344Z,2.30
2022-08-03T18:23:50.327Z,2.90
2022-08-03T18:26:22.090Z,2.10
2022-08-03T18:28:54.880Z,3.00
2022-08-03T18:31:59.593Z,3.50
2022-08-03T18:34:32.419Z,3.60
2022-08-03T18:37:08.027Z,4.00
2022-08-03T18:39:49.718Z,5.10
2022-08-03T18:42:19.848Z,4.10
2022-08-03T18:44:54.343Z,8.70
2022-08-03T18:47:50.559Z,7.50
2022-08-03T18:50:41.214Z,10.90
2022-08-03T18:54:02.183Z,4.50
2022-08-03T18:56:45.250Z,3.60
2022-08-03T18:59:30.339Z,3.10
2022-08-03T19:02:09.332Z,7.70
2022-08-03T19:04:47.508Z,3.10
2022-08-03T19:07:23.327Z,3.20
2022-08-03T19:09:58.895Z,5.40
2022-08-03T19:12:39.482Z,5.20
2022-08-03T19:15:41.359Z,4.40
2022-08-03T19:18:18.005Z,3.50
2022-08-03T19:20:56.192Z,3.10
2022-08-03T19:23:25.985Z,2.50
2022-08-03T19:26:02.415Z,2.60
2022-08-03T19:28:33.366Z,3.70
2022-08-03T19:31:02.577Z,3.60
2022-08-03T19:33:55.883Z,3.30
2022-08-03T19:36:28.283Z,2.30
2022-08-03T19:38:57.643Z,4.10
2022-08-03T19:41:42.215Z,5.20
2022-08-03T19:44:20.278Z,5.20
2022-08-03T19:46:57.967Z,2.80
2022-08-03T19:50:02.839Z,4.70
2022-08-03T19:52:24.349Z,3.00
2022-08-03T19:57:57.087Z,3.70
2022-08-03T20:00:30.566Z,2.50
2022-08-03T20:03:02.787Z,4.60
2022-08-03T20:05:45.039Z,2.60
2022-08-03T20:08:20.724Z,3.10
2022-08-03T20:10:50.014Z,3.40
2022-08-03T20:13:20.526Z,4.20
2022-08-03T20:15:49.111Z,2.80
2022-08-03T20:18:22.193Z,6.10
2022-08-03T20:20:52.679Z,3.10
2022-08-03T20:23:22.817Z,4.40
2022-08-03T20:28:51.933Z,2.20
2022-08-03T20:31:25.167Z,2.50
2022-08-03T20:34:00.954Z,3.40
2022-08-03T20:36:29.248Z,4.90
2022-08-03T20:38:59.654Z,5.50
2022-08-03T20:41:28.132Z,4.10
2022-08-03T20:44:01.012Z,4.30
2022-08-03T20:46:40.636Z,4.90
2022-08-03T20:49:22.921Z,3.90
2022-08-03T20:51:53.232Z,2.80
2022-08-03T20:54:30.951Z,3.30
2022-08-03T20:57:04.217Z,2.30
2022-08-03T20:59:50.598Z,5.10
2022-08-03T21:02:29.505Z,4.00
2022-08-03T21:05:03.051Z,2.80
2022-08-03T21:07:45.905Z,2.60
2022-08-03T21:10:30.403Z,4.40
2022-08-03T21:12:57.499Z,2.40
2022-08-03T21:13:08.908Z,3.50
2022-08-03T21:13:12.468Z,3.00
2022-08-03T21:13:16.872Z,3.10
2022-08-03T21:16:11.284Z,3.50
2022-08-03T21:18:50.599Z,3.30
2022-08-03T21:21:21.512Z,3.80
2022-08-03T21:23:53.052Z,4.20
2022-08-03T21:26:25.723Z,5.20
2022-08-03T21:28:56.608Z,2.60
2022-08-03T21:31:27.020Z,4.40
2022-08-03T21:33:58.522Z,4.40
2022-08-03T21:36:28.770Z,3.90
2022-08-03T21:38:58.655Z,2.30
2022-08-03T21:41:30.061Z,4.00
2022-08-03T21:43:59.579Z,3.00
2022-08-03T21:46:35.787Z,4.10
2022-08-03T21:50:04.559Z,3.60
2022-08-03T21:51:59.404Z,2.80
2022-08-03T21:54:34.814Z,2.70
2022-08-03T21:57:06.033Z,3.00
2022-08-03T21:59:38.253Z,3.40
2022-08-03T22:02:15.598Z,3.70
2022-08-03T22:04:56.303Z,6.60
2022-08-03T22:07:27.251Z,4.00
2022-08-03T22:09:56.346Z,3.40
2022-08-03T22:12:26.812Z,3.30
2022-08-03T22:15:00.362Z,3.00
2022-08-03T22:17:54.527Z,3.70
2022-08-03T22:20:23.501Z,3.70
2022-08-03T22:22:56.655Z,5.50
2022-08-03T22:25:29.819Z,4.30
2022-08-03T22:28:00.826Z,9.00
2022-08-03T22:30:29.095Z,3.40
2022-08-03T22:32:58.954Z,3.80
2022-08-03T22:35:28.456Z,4.10
2022-08-03T22:37:58.643Z,3.70
2022-08-03T22:40:28.044Z,3.20
2022-08-03T22:42:57.135Z,3.90
2022-08-03T22:46:06.059Z,3.50
2022-08-03T22:48:14.519Z,3.30
2022-08-03T22:50:44.623Z,3.60
2022-08-03T22:53:17.922Z,2.50
2022-08-03T22:55:48.985Z,2.90
2022-08-03T22:58:17.940Z,2.40
2022-08-03T23:00:53.859Z,2.80
2022-08-03T23:03:58.889Z,2.90
2022-08-03T23:06:19.161Z,7.30
2022-08-03T23:08:47.840Z,3.20
2022-08-03T23:11:18.749Z,2.90
2022-08-03T23:13:52.593Z,4.30
2022-08-03T23:19:16.359Z,3.90
2022-08-03T23:22:00.088Z,4.60
2022-08-03T23:24:30.453Z,4.90
2022-08-03T23:26:59.411Z,4.10
2022-08-03T23:29:30.650Z,3.90
2022-08-03T23:31:59.660Z,3.00
2022-08-03T23:34:49.813Z,3.80
2022-08-03T23:37:19.518Z,3.80
2022-08-03T23:39:49.349Z,4.40
2022-08-03T23:42:19.747Z,7.10
2022-08-03T23:44:55.788Z,4.00
2022-08-03T23:47:46.615Z,3.00
2022-08-03T23:50:14.723Z,3.50
2022-08-03T23:53:33.732Z,5.40
2022-08-03T23:56:32.356Z,3.80
2022-08-03T23:59:14.622Z,4.20
